sensor_id;sensor_type;location;lat;lon;timestamp;P1;durP1;ratioP1;P2;durP2;ratioP2
76023;SDS011;64719;52.124;6.226;2023-07-13T00:00:08;7.55;;;2.17;;
76023;SDS011;64719;52.124;6.226;2023-07-13T00:02:36;5.32;;;1.90;;
76023;SDS011;64719;52.124;6.226;2023-07-13T00:05:03;7.55;;;1.95;;
76023;SDS011;64719;52.124;6.226;2023-07-13T00:07:33;3.63;;;2.35;;
76023;SDS011;64719;52.124;6.226;2023-07-13T00:09:59;6.35;;;1.92;;
76023;SDS011;64719;52.124;6.226;2023-07-13T00:12:28;7.50;;;2.72;;
76023;SDS011;64719;52.124;6.226;2023-07-13T00:14:56;7.15;;;2.40;;
76023;SDS011;64719;52.124;6.226;2023-07-13T00:17:25;7.00;;;2.35;;
76023;SDS011;64719;52.124;6.226;2023-07-13T00:19:52;7.32;;;2.80;;
76023;SDS011;64719;52.124;6.226;2023-07-13T00:22:20;7.75;;;2.30;;
76023;SDS011;64719;52.124;6.226;2023-07-13T00:24:50;7.15;;;2.10;;
76023;SDS011;64719;52.124;6.226;2023-07-13T00:27:17;7.80;;;2.40;;
76023;SDS011;64719;52.124;6.226;2023-07-13T00:29:44;8.32;;;2.65;;
76023;SDS011;64719;52.124;6.226;2023-07-13T00:32:11;10.68;;;2.50;;
76023;SDS011;64719;52.124;6.226;2023-07-13T00:34:38;5.38;;;2.42;;
76023;SDS011;64719;52.124;6.226;2023-07-13T00:37:06;7.03;;;2.45;;
76023;SDS011;64719;52.124;6.226;2023-07-13T00:39:33;8.40;;;2.50;;
76023;SDS011;64719;52.124;6.226;2023-07-13T00:42:02;9.13;;;2.70;;
76023;SDS011;64719;52.124;6.226;2023-07-13T00:44:30;5.72;;;2.75;;
76023;SDS011;64719;52.124;6.226;2023-07-13T00:46:56;8.23;;;2.60;;
76023;SDS011;64719;52.124;6.226;2023-07-13T00:49:24;8.43;;;2.33;;
76023;SDS011;64719;52.124;6.226;2023-07-13T00:51:54;7.97;;;2.70;;
76023;SDS011;64719;52.124;6.226;2023-07-13T00:54:23;8.90;;;2.88;;
76023;SDS011;64719;52.124;6.226;2023-07-13T00:56:53;5.15;;;2.05;;
76023;SDS011;64719;52.124;6.226;2023-07-13T00:59:25;5.57;;;2.22;;
76023;SDS011;64719;52.124;6.226;2023-07-13T01:01:53;5.95;;;2.50;;
76023;SDS011;64719;52.124;6.226;2023-07-13T01:04:22;5.13;;;2.10;;
76023;SDS011;64719;52.124;6.226;2023-07-13T01:06:50;7.57;;;2.35;;
76023;SDS011;64719;52.124;6.226;2023-07-13T01:09:17;9.45;;;3.25;;
76023;SDS011;64719;52.124;6.226;2023-07-13T01:14:12;8.10;;;2.17;;
76023;SDS011;64719;52.124;6.226;2023-07-13T01:16:41;5.38;;;2.10;;
76023;SDS011;64719;52.124;6.226;2023-07-13T01:19:12;5.93;;;2.00;;
76023;SDS011;64719;52.124;6.226;2023-07-13T01:21:51;6.00;;;2.08;;
76023;SDS011;64719;52.124;6.226;2023-07-13T01:24:18;3.80;;;1.90;;
76023;SDS011;64719;52.124;6.226;2023-07-13T01:26:45;7.13;;;2.00;;
76023;SDS011;64719;52.124;6.226;2023-07-13T01:29:12;5.95;;;2.10;;
76023;SDS011;64719;52.124;6.226;2023-07-13T01:31:38;5.97;;;1.83;;
76023;SDS011;64719;52.124;6.226;2023-07-13T01:34:05;6.15;;;2.08;;
76023;SDS011;64719;52.124;6.226;2023-07-13T01:36:33;8.45;;;2.30;;
76023;SDS011;64719;52.124;6.226;2023-07-13T01:39:02;5.00;;;1.90;;
76023;SDS011;64719;52.124;6.226;2023-07-13T01:41:29;7.20;;;2.40;;
76023;SDS011;64719;52.124;6.226;2023-07-13T01:43:56;6.18;;;2.50;;
76023;SDS011;64719;52.124;6.226;2023-07-13T01:46:23;9.43;;;2.80;;
76023;SDS011;64719;52.124;6.226;2023-07-13T01:48:49;5.25;;;1.85;;
76023;SDS011;64719;52.124;6.226;2023-07-13T01:51:18;12.05;;;3.20;;
76023;SDS011;64719;52.124;6.226;2023-07-13T01:53:46;8.27;;;2.35;;
76023;SDS011;64719;52.124;6.226;2023-07-13T01:56:14;6.38;;;2.42;;
76023;SDS011;64719;52.124;6.226;2023-07-13T01:58:40;5.05;;;2.20;;
76023;SDS011;64719;52.124;6.226;2023-07-13T02:01:07;6.80;;;2.20;;
76023;SDS011;64719;52.124;6.226;2023-07-13T02:03:34;9.02;;;2.35;;
76023;SDS011;64719;52.124;6.226;2023-07-13T02:06:00;6.70;;;2.10;;
76023;SDS011;64719;52.124;6.226;2023-07-13T02:08:28;5.18;;;2.20;;
76023;SDS011;64719;52.124;6.226;2023-07-13T02:10:55;4.90;;;1.92;;
76023;SDS011;64719;52.124;6.226;2023-07-13T02:13:23;6.88;;;2.10;;
76023;SDS011;64719;52.124;6.226;2023-07-13T02:15:50;4.75;;;1.73;;
76023;SDS011;64719;52.124;6.226;2023-07-13T02:18:17;7.25;;;2.33;;
76023;SDS011;64719;52.124;6.226;2023-07-13T02:20:43;4.22;;;2.10;;
76023;SDS011;64719;52.124;6.226;2023-07-13T02:23:10;9.15;;;2.10;;
76023;SDS011;64719;52.124;6.226;2023-07-13T02:25:37;12.02;;;2.80;;
76023;SDS011;64719;52.124;6.226;2023-07-13T02:28:04;2.95;;;1.73;;
76023;SDS011;64719;52.124;6.226;2023-07-13T02:30:32;4.47;;;2.47;;
76023;SDS011;64719;52.124;6.226;2023-07-13T02:32:58;7.07;;;2.40;;
76023;SDS011;64719;52.124;6.226;2023-07-13T02:35:25;5.82;;;2.67;;
76023;SDS011;64719;52.124;6.226;2023-07-13T02:37:52;5.70;;;2.10;;
76023;SDS011;64719;52.124;6.226;2023-07-13T02:40:19;7.70;;;2.58;;
76023;SDS011;64719;52.124;6.226;2023-07-13T02:42:46;5.30;;;2.20;;
76023;SDS011;64719;52.124;6.226;2023-07-13T02:45:12;8.75;;;2.30;;
76023;SDS011;64719;52.124;6.226;2023-07-13T02:47:41;5.13;;;2.13;;
76023;SDS011;64719;52.124;6.226;2023-07-13T02:50:08;5.03;;;2.55;;
76023;SDS011;64719;52.124;6.226;2023-07-13T02:52:35;7.43;;;2.35;;
76023;SDS011;64719;52.124;6.226;2023-07-13T02:55:02;5.88;;;2.47;;
76023;SDS011;64719;52.124;6.226;2023-07-13T02:57:29;4.63;;;2.35;;
76023;SDS011;64719;52.124;6.226;2023-07-13T02:59:57;7.25;;;2.58;;
76023;SDS011;64719;52.124;6.226;2023-07-13T03:02:24;4.65;;;2.40;;
76023;SDS011;64719;52.124;6.226;2023-07-13T03:04:54;5.32;;;2.85;;
76023;SDS011;64719;52.124;6.226;2023-07-13T03:07:21;7.68;;;2.90;;
76023;SDS011;64719;52.124;6.226;2023-07-13T03:09:48;4.35;;;2.58;;
76023;SDS011;64719;52.124;6.226;2023-07-13T03:12:14;8.07;;;2.42;;
76023;SDS011;64719;52.124;6.226;2023-07-13T03:14:41;6.25;;;2.47;;
76023;SDS011;64719;52.124;6.226;2023-07-13T03:17:08;7.82;;;3.05;;
76023;SDS011;64719;52.124;6.226;2023-07-13T03:19:34;5.72;;;2.28;;
76023;SDS011;64719;52.124;6.226;2023-07-13T03:22:03;9.52;;;2.78;;
76023;SDS011;64719;52.124;6.226;2023-07-13T03:24:30;9.23;;;2.90;;
76023;SDS011;64719;52.124;6.226;2023-07-13T03:27:00;10.60;;;2.90;;
76023;SDS011;64719;52.124;6.226;2023-07-13T03:29:27;6.70;;;2.53;;
76023;SDS011;64719;52.124;6.226;2023-07-13T03:31:54;9.70;;;3.58;;
76023;SDS011;64719;52.124;6.226;2023-07-13T03:34:20;10.38;;;3.20;;
76023;SDS011;64719;52.124;6.226;2023-07-13T03:36:47;7.13;;;3.13;;
76023;SDS011;64719;52.124;6.226;2023-07-13T03:39:15;10.95;;;3.28;;
76023;SDS011;64719;52.124;6.226;2023-07-13T03:44:08;11.82;;;4.15;;
76023;SDS011;64719;52.124;6.226;2023-07-13T03:46:35;7.90;;;3.30;;
76023;SDS011;64719;52.124;6.226;2023-07-13T03:49:03;8.13;;;2.80;;
76023;SDS011;64719;52.124;6.226;2023-07-13T03:51:31;7.30;;;2.90;;
76023;SDS011;64719;52.124;6.226;2023-07-13T03:53:57;11.50;;;3.47;;
76023;SDS011;64719;52.124;6.226;2023-07-13T03:56:25;9.80;;;3.53;;
76023;SDS011;64719;52.124;6.226;2023-07-13T03:58:52;10.05;;;3.40;;
76023;SDS011;64719;52.124;6.226;2023-07-13T04:01:20;9.77;;;3.28;;
76023;SDS011;64719;52.124;6.226;2023-07-13T04:03:48;9.75;;;3.47;;
76023;SDS011;64719;52.124;6.226;2023-07-13T04:06:16;10.48;;;3.42;;
76023;SDS011;64719;52.124;6.226;2023-07-13T04:08:46;8.07;;;3.08;;
76023;SDS011;64719;52.124;6.226;2023-07-13T04:11:14;12.32;;;4.05;;
76023;SDS011;64719;52.124;6.226;2023-07-13T04:13:42;8.35;;;3.15;;
76023;SDS011;64719;52.124;6.226;2023-07-13T04:18:36;10.98;;;3.38;;
76023;SDS011;64719;52.124;6.226;2023-07-13T04:21:02;14.52;;;5.68;;
76023;SDS011;64719;52.124;6.226;2023-07-13T04:23:29;6.97;;;3.80;;
76023;SDS011;64719;52.124;6.226;2023-07-13T04:25:56;13.68;;;3.88;;
76023;SDS011;64719;52.124;6.226;2023-07-13T04:28:23;14.07;;;3.58;;
76023;SDS011;64719;52.124;6.226;2023-07-13T04:30:53;11.32;;;3.65;;
76023;SDS011;64719;52.124;6.226;2023-07-13T04:33:19;8.77;;;2.95;;
76023;SDS011;64719;52.124;6.226;2023-07-13T04:35:47;7.18;;;3.20;;
76023;SDS011;64719;52.124;6.226;2023-07-13T04:38:15;8.23;;;2.78;;
76023;SDS011;64719;52.124;6.226;2023-07-13T04:40:42;7.90;;;3.00;;
76023;SDS011;64719;52.124;6.226;2023-07-13T04:43:10;7.88;;;2.78;;
76023;SDS011;64719;52.124;6.226;2023-07-13T04:45:37;5.85;;;2.90;;
76023;SDS011;64719;52.124;6.226;2023-07-13T04:48:05;8.60;;;2.90;;
76023;SDS011;64719;52.124;6.226;2023-07-13T04:50:32;10.90;;;2.90;;
76023;SDS011;64719;52.124;6.226;2023-07-13T04:52:59;8.77;;;2.90;;
76023;SDS011;64719;52.124;6.226;2023-07-13T04:55:25;9.20;;;3.42;;
76023;SDS011;64719;52.124;6.226;2023-07-13T04:57:55;9.65;;;2.80;;
76023;SDS011;64719;52.124;6.226;2023-07-13T05:00:23;9.07;;;3.42;;
76023;SDS011;64719;52.124;6.226;2023-07-13T05:02:51;8.23;;;3.05;;
76023;SDS011;64719;52.124;6.226;2023-07-13T05:05:19;9.35;;;3.13;;
76023;SDS011;64719;52.124;6.226;2023-07-13T05:07:45;9.77;;;3.20;;
76023;SDS011;64719;52.124;6.226;2023-07-13T05:10:12;9.45;;;3.55;;
76023;SDS011;64719;52.124;6.226;2023-07-13T05:12:39;6.45;;;2.97;;
76023;SDS011;64719;52.124;6.226;2023-07-13T05:15:06;8.68;;;3.28;;
76023;SDS011;64719;52.124;6.226;2023-07-13T05:20:00;9.23;;;3.45;;
76023;SDS011;64719;52.124;6.226;2023-07-13T05:22:28;9.55;;;3.53;;
76023;SDS011;64719;52.124;6.226;2023-07-13T05:24:54;9.00;;;3.95;;
76023;SDS011;64719;52.124;6.226;2023-07-13T05:27:21;9.30;;;3.55;;
76023;SDS011;64719;52.124;6.226;2023-07-13T05:29:48;12.30;;;3.70;;
76023;SDS011;64719;52.124;6.226;2023-07-13T05:32:16;11.88;;;3.67;;
76023;SDS011;64719;52.124;6.226;2023-07-13T05:34:44;12.90;;;4.07;;
76023;SDS011;64719;52.124;6.226;2023-07-13T05:37:10;10.43;;;4.32;;
76023;SDS011;64719;52.124;6.226;2023-07-13T05:39:38;12.18;;;3.97;;
76023;SDS011;64719;52.124;6.226;2023-07-13T05:42:05;13.38;;;4.28;;
76023;SDS011;64719;52.124;6.226;2023-07-13T05:44:32;8.98;;;4.10;;
76023;SDS011;64719;52.124;6.226;2023-07-13T05:46:59;11.75;;;4.32;;
76023;SDS011;64719;52.124;6.226;2023-07-13T05:49:26;8.25;;;4.20;;
76023;SDS011;64719;52.124;6.226;2023-07-13T05:51:53;12.05;;;4.53;;
76023;SDS011;64719;52.124;6.226;2023-07-13T05:54:19;11.80;;;5.07;;
76023;SDS011;64719;52.124;6.226;2023-07-13T05:56:47;15.57;;;5.40;;
76023;SDS011;64719;52.124;6.226;2023-07-13T05:59:14;10.02;;;4.80;;
76023;SDS011;64719;52.124;6.226;2023-07-13T06:01:41;16.60;;;5.43;;
76023;SDS011;64719;52.124;6.226;2023-07-13T06:04:08;13.15;;;6.65;;
76023;SDS011;64719;52.124;6.226;2023-07-13T06:06:34;12.82;;;6.05;;
76023;SDS011;64719;52.124;6.226;2023-07-13T06:09:01;12.23;;;6.45;;
76023;SDS011;64719;52.124;6.226;2023-07-13T06:11:28;16.65;;;5.90;;
76023;SDS011;64719;52.124;6.226;2023-07-13T06:13:56;13.55;;;6.95;;
76023;SDS011;64719;52.124;6.226;2023-07-13T06:16:23;13.90;;;6.55;;
76023;SDS011;64719;52.124;6.226;2023-07-13T06:18:50;17.08;;;7.45;;
76023;SDS011;64719;52.124;6.226;2023-07-13T06:21:18;14.77;;;7.40;;
76023;SDS011;64719;52.124;6.226;2023-07-13T06:23:46;15.60;;;7.70;;
76023;SDS011;64719;52.124;6.226;2023-07-13T06:26:14;16.05;;;7.65;;
76023;SDS011;64719;52.124;6.226;2023-07-13T06:28:41;17.58;;;7.88;;
76023;SDS011;64719;52.124;6.226;2023-07-13T06:31:11;16.10;;;7.35;;
76023;SDS011;64719;52.124;6.226;2023-07-13T06:33:39;17.58;;;8.40;;
76023;SDS011;64719;52.124;6.226;2023-07-13T06:36:06;15.48;;;7.82;;
76023;SDS011;64719;52.124;6.226;2023-07-13T06:38:34;16.92;;;7.57;;
76023;SDS011;64719;52.124;6.226;2023-07-13T06:41:01;16.55;;;7.47;;
76023;SDS011;64719;52.124;6.226;2023-07-13T06:43:28;17.23;;;7.53;;
76023;SDS011;64719;52.124;6.226;2023-07-13T06:45:56;13.88;;;7.25;;
76023;SDS011;64719;52.124;6.226;2023-07-13T06:48:25;14.57;;;7.00;;
76023;SDS011;64719;52.124;6.226;2023-07-13T06:50:52;13.32;;;7.68;;
76023;SDS011;64719;52.124;6.226;2023-07-13T06:53:19;13.57;;;7.32;;
76023;SDS011;64719;52.124;6.226;2023-07-13T06:55:46;19.30;;;7.53;;
76023;SDS011;64719;52.124;6.226;2023-07-13T06:58:14;17.13;;;7.88;;
76023;SDS011;64719;52.124;6.226;2023-07-13T07:00:41;22.58;;;8.20;;
76023;SDS011;64719;52.124;6.226;2023-07-13T07:03:08;17.98;;;8.55;;
76023;SDS011;64719;52.124;6.226;2023-07-13T07:05:36;16.38;;;7.40;;
76023;SDS011;64719;52.124;6.226;2023-07-13T07:08:03;19.33;;;8.88;;
76023;SDS011;64719;52.124;6.226;2023-07-13T07:10:30;19.15;;;8.32;;
76023;SDS011;64719;52.124;6.226;2023-07-13T07:12:57;16.80;;;8.93;;
76023;SDS011;64719;52.124;6.226;2023-07-13T07:15:24;18.55;;;8.07;;
76023;SDS011;64719;52.124;6.226;2023-07-13T07:17:52;18.10;;;8.15;;
76023;SDS011;64719;52.124;6.226;2023-07-13T07:20:19;13.30;;;8.05;;
76023;SDS011;64719;52.124;6.226;2023-07-13T07:22:47;16.25;;;8.80;;
76023;SDS011;64719;52.124;6.226;2023-07-13T07:25:14;13.65;;;7.88;;
76023;SDS011;64719;52.124;6.226;2023-07-13T07:27:41;15.82;;;7.53;;
76023;SDS011;64719;52.124;6.226;2023-07-13T07:30:08;19.15;;;8.20;;
76023;SDS011;64719;52.124;6.226;2023-07-13T07:32:36;18.50;;;8.40;;
76023;SDS011;64719;52.124;6.226;2023-07-13T07:35:03;15.65;;;8.25;;
76023;SDS011;64719;52.124;6.226;2023-07-13T07:37:30;18.00;;;8.45;;
76023;SDS011;64719;52.124;6.226;2023-07-13T07:39:58;15.32;;;7.97;;
76023;SDS011;64719;52.124;6.226;2023-07-13T07:42:25;13.52;;;8.63;;
76023;SDS011;64719;52.124;6.226;2023-07-13T07:44:52;14.23;;;8.35;;
76023;SDS011;64719;52.124;6.226;2023-07-13T07:47:18;18.08;;;8.65;;
76023;SDS011;64719;52.124;6.226;2023-07-13T07:49:45;17.75;;;8.65;;
76023;SDS011;64719;52.124;6.226;2023-07-13T07:52:12;16.05;;;9.45;;
76023;SDS011;64719;52.124;6.226;2023-07-13T07:54:38;13.43;;;8.23;;
76023;SDS011;64719;52.124;6.226;2023-07-13T07:57:07;16.35;;;8.32;;
76023;SDS011;64719;52.124;6.226;2023-07-13T07:59:35;14.43;;;8.27;;
76023;SDS011;64719;52.124;6.226;2023-07-13T08:02:03;13.00;;;8.00;;
76023;SDS011;64719;52.124;6.226;2023-07-13T08:04:30;13.90;;;7.63;;
76023;SDS011;64719;52.124;6.226;2023-07-13T08:06:57;15.80;;;8.48;;
76023;SDS011;64719;52.124;6.226;2023-07-13T08:09:24;16.40;;;8.57;;
76023;SDS011;64719;52.124;6.226;2023-07-13T08:11:50;20.75;;;9.27;;
76023;SDS011;64719;52.124;6.226;2023-07-13T08:14:19;12.27;;;7.90;;
76023;SDS011;64719;52.124;6.226;2023-07-13T08:16:45;16.65;;;8.75;;
76023;SDS011;64719;52.124;6.226;2023-07-13T08:19:12;17.70;;;8.60;;
76023;SDS011;64719;52.124;6.226;2023-07-13T08:21:39;18.63;;;9.00;;
76023;SDS011;64719;52.124;6.226;2023-07-13T08:24:07;15.48;;;8.07;;
76023;SDS011;64719;52.124;6.226;2023-07-13T08:26:34;11.93;;;8.18;;
76023;SDS011;64719;52.124;6.226;2023-07-13T08:29:01;15.82;;;8.18;;
76023;SDS011;64719;52.124;6.226;2023-07-13T08:31:29;19.77;;;9.00;;
76023;SDS011;64719;52.124;6.226;2023-07-13T08:33:56;11.98;;;7.80;;
76023;SDS011;64719;52.124;6.226;2023-07-13T08:36:23;12.20;;;8.15;;
76023;SDS011;64719;52.124;6.226;2023-07-13T08:38:49;13.48;;;7.75;;
76023;SDS011;64719;52.124;6.226;2023-07-13T08:41:17;13.52;;;8.57;;
76023;SDS011;64719;52.124;6.226;2023-07-13T08:43:45;18.95;;;8.52;;
76023;SDS011;64719;52.124;6.226;2023-07-13T08:46:15;14.35;;;8.43;;
76023;SDS011;64719;52.124;6.226;2023-07-13T08:48:47;15.02;;;8.05;;
76023;SDS011;64719;52.124;6.226;2023-07-13T08:51:23;12.30;;;7.90;;
76023;SDS011;64719;52.124;6.226;2023-07-13T08:53:58;14.95;;;7.03;;
76023;SDS011;64719;52.124;6.226;2023-07-13T08:56:28;13.10;;;7.57;;
76023;SDS011;64719;52.124;6.226;2023-07-13T08:58:57;15.25;;;7.30;;
76023;SDS011;64719;52.124;6.226;2023-07-13T09:01:28;15.57;;;7.80;;
76023;SDS011;64719;52.124;6.226;2023-07-13T09:03:59;13.35;;;7.53;;
76023;SDS011;64719;52.124;6.226;2023-07-13T09:06:34;14.00;;;7.78;;
76023;SDS011;64719;52.124;6.226;2023-07-13T09:09:10;11.10;;;6.20;;
76023;SDS011;64719;52.124;6.226;2023-07-13T09:11:49;17.33;;;6.20;;
76023;SDS011;64719;52.124;6.226;2023-07-13T09:16:57;13.05;;;6.15;;
76023;SDS011;64719;52.124;6.226;2023-07-13T09:19:28;13.60;;;7.03;;
76023;SDS011;64719;52.124;6.226;2023-07-13T09:24:28;14.48;;;7.22;;
76023;SDS011;64719;52.124;6.226;2023-07-13T09:27:15;12.48;;;7.32;;
76023;SDS011;64719;52.124;6.226;2023-07-13T09:29:47;15.25;;;7.45;;
76023;SDS011;64719;52.124;6.226;2023-07-13T09:32:17;12.07;;;6.82;;
76023;SDS011;64719;52.124;6.226;2023-07-13T09:34:51;8.70;;;5.25;;
76023;SDS011;64719;52.124;6.226;2023-07-13T09:37:19;12.50;;;6.20;;
76023;SDS011;64719;52.124;6.226;2023-07-13T09:39:49;10.75;;;5.28;;
76023;SDS011;64719;52.124;6.226;2023-07-13T09:42:19;9.77;;;5.63;;
76023;SDS011;64719;52.124;6.226;2023-07-13T09:44:51;9.57;;;5.80;;
76023;SDS011;64719;52.124;6.226;2023-07-13T09:47:20;9.52;;;5.65;;
76023;SDS011;64719;52.124;6.226;2023-07-13T09:49:53;10.38;;;6.30;;
76023;SDS011;64719;52.124;6.226;2023-07-13T09:52:21;13.32;;;6.75;;
76023;SDS011;64719;52.124;6.226;2023-07-13T09:54:49;12.98;;;7.25;;
76023;SDS011;64719;52.124;6.226;2023-07-13T09:57:17;9.40;;;6.25;;
76023;SDS011;64719;52.124;6.226;2023-07-13T09:59:46;11.75;;;6.05;;
76023;SDS011;64719;52.124;6.226;2023-07-13T10:02:24;9.27;;;5.90;;
76023;SDS011;64719;52.124;6.226;2023-07-13T10:04:56;10.52;;;5.93;;
76023;SDS011;64719;52.124;6.226;2023-07-13T10:07:24;16.83;;;6.30;;
76023;SDS011;64719;52.124;6.226;2023-07-13T10:09:51;7.55;;;4.63;;
76023;SDS011;64719;52.124;6.226;2023-07-13T10:12:19;7.53;;;4.63;;
76023;SDS011;64719;52.124;6.226;2023-07-13T10:14:48;6.88;;;4.60;;
76023;SDS011;64719;52.124;6.226;2023-07-13T10:17:18;8.38;;;3.95;;
76023;SDS011;64719;52.124;6.226;2023-07-13T10:19:52;7.22;;;4.43;;
76023;SDS011;64719;52.124;6.226;2023-07-13T10:22:22;7.70;;;4.43;;
76023;SDS011;64719;52.124;6.226;2023-07-13T10:24:55;9.10;;;4.07;;
76023;SDS011;64719;52.124;6.226;2023-07-13T10:29:53;4.40;;;2.65;;
76023;SDS011;64719;52.124;6.226;2023-07-13T10:32:27;3.92;;;2.25;;
76023;SDS011;64719;52.124;6.226;2023-07-13T10:34:54;5.13;;;2.30;;
76023;SDS011;64719;52.124;6.226;2023-07-13T10:37:24;5.57;;;2.33;;
76023;SDS011;64719;52.124;6.226;2023-07-13T10:39:54;4.18;;;2.22;;
76023;SDS011;64719;52.124;6.226;2023-07-13T10:42:25;7.35;;;3.35;;
76023;SDS011;64719;52.124;6.226;2023-07-13T10:44:55;4.38;;;2.28;;
76023;SDS011;64719;52.124;6.226;2023-07-13T10:47:22;6.13;;;2.60;;
76023;SDS011;64719;52.124;6.226;2023-07-13T10:49:50;6.60;;;2.33;;
76023;SDS011;64719;52.124;6.226;2023-07-13T10:52:44;5.40;;;2.20;;
76023;SDS011;64719;52.124;6.226;2023-07-13T10:55:31;6.45;;;2.90;;
76023;SDS011;64719;52.124;6.226;2023-07-13T10:58:10;5.55;;;2.60;;
76023;SDS011;64719;52.124;6.226;2023-07-13T11:00:49;6.07;;;2.70;;
76023;SDS011;64719;52.124;6.226;2023-07-13T11:05:48;8.32;;;3.15;;
76023;SDS011;64719;52.124;6.226;2023-07-13T11:08:18;7.70;;;3.30;;
76023;SDS011;64719;52.124;6.226;2023-07-13T11:10:51;10.82;;;4.35;;
76023;SDS011;64719;52.124;6.226;2023-07-13T11:19:27;8.70;;;3.63;;
76023;SDS011;64719;52.124;6.226;2023-07-13T11:22:16;6.88;;;3.25;;
76023;SDS011;64719;52.124;6.226;2023-07-13T11:24:50;4.90;;;2.80;;
76023;SDS011;64719;52.124;6.226;2023-07-13T11:27:24;4.68;;;2.70;;
76023;SDS011;64719;52.124;6.226;2023-07-13T11:32:51;6.00;;;3.45;;
76023;SDS011;64719;52.124;6.226;2023-07-13T11:35:32;7.07;;;3.20;;
76023;SDS011;64719;52.124;6.226;2023-07-13T11:38:01;5.88;;;3.97;;
76023;SDS011;64719;52.124;6.226;2023-07-13T11:40:30;5.15;;;3.45;;
76023;SDS011;64719;52.124;6.226;2023-07-13T11:42:59;5.43;;;3.40;;
76023;SDS011;64719;52.124;6.226;2023-07-13T11:45:27;4.75;;;2.60;;
76023;SDS011;64719;52.124;6.226;2023-07-13T11:47:53;4.57;;;2.10;;
76023;SDS011;64719;52.124;6.226;2023-07-13T11:50:22;4.30;;;2.00;;
76023;SDS011;64719;52.124;6.226;2023-07-13T11:52:50;6.45;;;2.35;;
76023;SDS011;64719;52.124;6.226;2023-07-13T11:55:21;3.33;;;1.70;;
76023;SDS011;64719;52.124;6.226;2023-07-13T11:57:50;2.58;;;1.40;;
76023;SDS011;64719;52.124;6.226;2023-07-13T12:00:22;3.58;;;1.63;;
76023;SDS011;64719;52.124;6.226;2023-07-13T12:02:53;4.20;;;1.95;;
76023;SDS011;64719;52.124;6.226;2023-07-13T12:05:22;4.32;;;2.25;;
76023;SDS011;64719;52.124;6.226;2023-07-13T12:07:50;6.45;;;2.60;;
76023;SDS011;64719;52.124;6.226;2023-07-13T12:10:18;4.57;;;2.17;;
76023;SDS011;64719;52.124;6.226;2023-07-13T12:12:47;4.30;;;2.40;;
76023;SDS011;64719;52.124;6.226;2023-07-13T12:15:16;5.80;;;2.40;;
76023;SDS011;64719;52.124;6.226;2023-07-13T12:17:42;4.88;;;2.15;;
76023;SDS011;64719;52.124;6.226;2023-07-13T12:20:20;4.80;;;2.40;;
76023;SDS011;64719;52.124;6.226;2023-07-13T12:22:50;4.82;;;1.85;;
76023;SDS011;64719;52.124;6.226;2023-07-13T12:25:18;5.65;;;2.20;;
76023;SDS011;64719;52.124;6.226;2023-07-13T12:27:48;3.55;;;2.00;;
76023;SDS011;64719;52.124;6.226;2023-07-13T12:30:28;5.72;;;2.53;;
76023;SDS011;64719;52.124;6.226;2023-07-13T12:32:56;5.50;;;2.50;;
76023;SDS011;64719;52.124;6.226;2023-07-13T12:35:25;4.50;;;2.40;;
76023;SDS011;64719;52.124;6.226;2023-07-13T12:37:56;4.05;;;2.60;;
76023;SDS011;64719;52.124;6.226;2023-07-13T12:40:26;4.57;;;2.35;;
76023;SDS011;64719;52.124;6.226;2023-07-13T12:43:01;6.63;;;2.80;;
76023;SDS011;64719;52.124;6.226;2023-07-13T12:45:30;5.18;;;2.63;;
76023;SDS011;64719;52.124;6.226;2023-07-13T12:47:58;7.18;;;2.85;;
76023;SDS011;64719;52.124;6.226;2023-07-13T12:50:30;8.35;;;2.70;;
76023;SDS011;64719;52.124;6.226;2023-07-13T12:53:03;4.63;;;2.50;;
76023;SDS011;64719;52.124;6.226;2023-07-13T12:55:37;7.45;;;2.65;;
76023;SDS011;64719;52.124;6.226;2023-07-13T12:58:09;7.32;;;3.72;;
76023;SDS011;64719;52.124;6.226;2023-07-13T13:00:47;8.80;;;3.70;;
76023;SDS011;64719;52.124;6.226;2023-07-13T13:03:20;7.40;;;3.35;;
76023;SDS011;64719;52.124;6.226;2023-07-13T13:05:56;6.13;;;3.15;;
76023;SDS011;64719;52.124;6.226;2023-07-13T13:08:24;4.85;;;3.60;;
76023;SDS011;64719;52.124;6.226;2023-07-13T13:10:51;4.93;;;3.20;;
76023;SDS011;64719;52.124;6.226;2023-07-13T13:13:18;5.53;;;3.38;;
76023;SDS011;64719;52.124;6.226;2023-07-13T13:15:46;5.15;;;3.30;;
76023;SDS011;64719;52.124;6.226;2023-07-13T13:18:17;8.43;;;3.05;;
76023;SDS011;64719;52.124;6.226;2023-07-13T13:23:13;4.32;;;2.13;;
76023;SDS011;64719;52.124;6.226;2023-07-13T13:25:42;3.05;;;1.70;;
76023;SDS011;64719;52.124;6.226;2023-07-13T13:28:12;4.35;;;2.17;;
76023;SDS011;64719;52.124;6.226;2023-07-13T13:30:41;4.30;;;2.00;;
76023;SDS011;64719;52.124;6.226;2023-07-13T13:33:10;5.05;;;2.05;;
76023;SDS011;64719;52.124;6.226;2023-07-13T13:35:39;5.72;;;2.50;;
76023;SDS011;64719;52.124;6.226;2023-07-13T13:38:11;5.43;;;2.10;;
76023;SDS011;64719;52.124;6.226;2023-07-13T13:40:39;5.63;;;2.60;;
76023;SDS011;64719;52.124;6.226;2023-07-13T13:43:12;5.00;;;2.55;;
76023;SDS011;64719;52.124;6.226;2023-07-13T13:45:41;4.60;;;2.28;;
76023;SDS011;64719;52.124;6.226;2023-07-13T13:48:12;4.95;;;2.40;;
76023;SDS011;64719;52.124;6.226;2023-07-13T13:50:41;5.57;;;2.53;;
76023;SDS011;64719;52.124;6.226;2023-07-13T13:53:09;5.90;;;2.60;;
76023;SDS011;64719;52.124;6.226;2023-07-13T13:55:37;7.07;;;2.80;;
76023;SDS011;64719;52.124;6.226;2023-07-13T13:58:03;7.32;;;2.60;;
76023;SDS011;64719;52.124;6.226;2023-07-13T14:00:31;2.53;;;2.20;;
76023;SDS011;64719;52.124;6.226;2023-07-13T14:02:58;4.90;;;2.42;;
76023;SDS011;64719;52.124;6.226;2023-07-13T14:05:26;6.82;;;2.80;;
76023;SDS011;64719;52.124;6.226;2023-07-13T14:07:53;4.95;;;2.30;;
76023;SDS011;64719;52.124;6.226;2023-07-13T14:10:20;5.22;;;2.47;;
76023;SDS011;64719;52.124;6.226;2023-07-13T14:12:47;7.10;;;2.42;;
76023;SDS011;64719;52.124;6.226;2023-07-13T14:15:20;4.72;;;2.22;;
76023;SDS011;64719;52.124;6.226;2023-07-13T14:17:48;5.90;;;2.80;;
76023;SDS011;64719;52.124;6.226;2023-07-13T14:20:16;5.70;;;2.35;;
76023;SDS011;64719;52.124;6.226;2023-07-13T14:22:45;4.88;;;2.35;;
76023;SDS011;64719;52.124;6.226;2023-07-13T14:25:12;5.95;;;2.40;;
76023;SDS011;64719;52.124;6.226;2023-07-13T14:27:40;5.45;;;2.47;;
76023;SDS011;64719;52.124;6.226;2023-07-13T14:30:12;4.45;;;2.17;;
76023;SDS011;64719;52.124;6.226;2023-07-13T14:32:40;4.20;;;2.35;;
76023;SDS011;64719;52.124;6.226;2023-07-13T14:35:07;4.93;;;2.38;;
76023;SDS011;64719;52.124;6.226;2023-07-13T14:37:36;4.43;;;2.30;;
76023;SDS011;64719;52.124;6.226;2023-07-13T14:40:08;5.05;;;2.45;;
76023;SDS011;64719;52.124;6.226;2023-07-13T14:42:39;5.00;;;2.50;;
76023;SDS011;64719;52.124;6.226;2023-07-13T14:45:11;4.25;;;2.20;;
76023;SDS011;64719;52.124;6.226;2023-07-13T14:47:39;5.80;;;2.17;;
76023;SDS011;64719;52.124;6.226;2023-07-13T14:50:11;4.30;;;2.40;;
76023;SDS011;64719;52.124;6.226;2023-07-13T14:52:39;4.47;;;2.35;;
76023;SDS011;64719;52.124;6.226;2023-07-13T14:55:09;3.78;;;2.28;;
76023;SDS011;64719;52.124;6.226;2023-07-13T14:57:36;6.80;;;2.47;;
76023;SDS011;64719;52.124;6.226;2023-07-13T15:00:04;4.72;;;2.10;;
76023;SDS011;64719;52.124;6.226;2023-07-13T15:02:33;4.72;;;2.33;;
76023;SDS011;64719;52.124;6.226;2023-07-13T15:05:05;4.63;;;2.28;;
76023;SDS011;64719;52.124;6.226;2023-07-13T15:07:38;5.90;;;2.53;;
76023;SDS011;64719;52.124;6.226;2023-07-13T15:10:12;5.25;;;2.40;;
76023;SDS011;64719;52.124;6.226;2023-07-13T15:12:40;5.13;;;2.60;;
76023;SDS011;64719;52.124;6.226;2023-07-13T15:15:07;3.38;;;2.17;;
76023;SDS011;64719;52.124;6.226;2023-07-13T15:17:35;4.03;;;2.47;;
76023;SDS011;64719;52.124;6.226;2023-07-13T15:20:05;5.95;;;2.60;;
76023;SDS011;64719;52.124;6.226;2023-07-13T15:22:41;4.60;;;2.17;;